createdAt,value
2022-11-29T00:01:35.702Z,40.28
2022-11-29T00:04:04.307Z,40.64
2022-11-29T00:06:33.918Z,40.31
2022-11-29T00:09:06.388Z,40.41
2022-11-29T00:11:37.334Z,40.58
2022-11-29T00:14:06.842Z,40.25
2022-11-29T00:16:35.205Z,39.89
2022-11-29T00:19:03.607Z,39.94
2022-11-29T00:21:31.785Z,40.16
2022-11-29T00:24:00.083Z,40.63
2022-11-29T00:26:28.357Z,40.24
2022-11-29T00:28:56.633Z,39.95
2022-11-29T00:31:30.457Z,40.38
2022-11-29T00:34:00.726Z,40.61
2022-11-29T00:36:29.865Z,40.26
2022-11-29T00:38:59.297Z,40.02
2022-11-29T00:41:27.650Z,40.39
2022-11-29T00:43:56.136Z,40.18
2022-11-29T00:46:24.892Z,40.16
2022-11-29T00:48:53.004Z,40.56
2022-11-29T00:51:22.104Z,40.41
2022-11-29T00:53:50.338Z,40.31
2022-11-29T00:56:18.562Z,40.04
2022-11-29T00:58:46.741Z,40.70
2022-11-29T01:01:15.164Z,40.63
2022-11-29T01:03:44.102Z,40.23
2022-11-29T01:06:15.470Z,40.27
2022-11-29T01:08:43.957Z,40.55
2022-11-29T01:11:15.687Z,40.63
2022-11-29T01:13:44.721Z,40.19
2022-11-29T01:16:14.553Z,40.17
2022-11-29T01:18:43.628Z,41.06
2022-11-29T01:21:18.154Z,40.97
2022-11-29T01:23:47.005Z,40.91
2022-11-29T01:26:19.329Z,40.81
2022-11-29T01:28:50.562Z,40.86
2022-11-29T01:31:22.243Z,41.01
2022-11-29T01:33:54.580Z,41.02
2022-11-29T01:36:23.662Z,41.22
2022-11-29T01:38:52.287Z,41.73
2022-11-29T01:41:26.743Z,40.75
2022-11-29T01:44:07.679Z,40.81
2022-11-29T01:46:39.337Z,41.38
2022-11-29T01:49:24.512Z,41.97
2022-11-29T01:51:58.202Z,41.68
2022-11-29T01:54:27.081Z,41.34
2022-11-29T01:56:55.180Z,41.22
2022-11-29T01:59:28.469Z,41.77
2022-11-29T02:02:25.245Z,41.59
2022-11-29T02:04:53.889Z,41.94
2022-11-29T02:07:22.201Z,41.32
2022-11-29T02:09:50.351Z,41.33
2022-11-29T02:12:50.831Z,41.59
2022-11-29T02:15:41.513Z,41.48
2022-11-29T02:18:21.092Z,41.32
2022-11-29T02:21:01.550Z,42.12
2022-11-29T02:23:39.041Z,41.70
2022-11-29T02:26:13.257Z,41.58
2022-11-29T02:29:03.541Z,41.46
2022-11-29T02:32:09.893Z,41.84
2022-11-29T02:34:58.048Z,42.28
2022-11-29T02:37:28.965Z,42.07
2022-11-29T02:40:01.132Z,42.42
2022-11-29T02:42:29.309Z,41.89
2022-11-29T02:45:09.053Z,42.21
2022-11-29T02:47:55.447Z,42.50
2022-11-29T02:50:50.126Z,42.14
2022-11-29T02:53:32.734Z,42.31
2022-11-29T02:56:23.019Z,42.39
2022-11-29T02:59:20.984Z,42.61
2022-11-29T03:02:05.150Z,42.50
2022-11-29T03:04:45.744Z,42.61
2022-11-29T03:07:20.465Z,43.42
2022-11-29T03:10:12.331Z,43.37
2022-11-29T03:12:47.721Z,43.30
2022-11-29T03:15:21.805Z,43.77
2022-11-29T03:18:02.649Z,42.98
2022-11-29T03:20:39.419Z,43.01
2022-11-29T03:23:19.481Z,43.25
2022-11-29T03:25:57.474Z,43.66
2022-11-29T03:28:28.211Z,44.11
2022-11-29T03:31:27.935Z,43.70
2022-11-29T03:33:56.496Z,44.23
2022-11-29T03:36:45.078Z,44.35
2022-11-29T03:39:28.672Z,43.47
2022-11-29T03:42:02.435Z,43.59
2022-11-29T03:44:47.039Z,43.61
2022-11-29T03:47:21.655Z,43.61
2022-11-29T03:49:53.724Z,43.46
2022-11-29T03:52:32.143Z,44.19
2022-11-29T03:55:09.419Z,43.85
2022-11-29T03:57:55.915Z,43.67
2022-11-29T04:00:24.825Z,43.74
2022-11-29T04:02:56.206Z,44.15
2022-11-29T04:05:40.614Z,44.21
2022-11-29T04:08:34.675Z,44.46
2022-11-29T04:11:40.760Z,43.96
2022-11-29T04:14:31.307Z,44.40
2022-11-29T04:17:38.573Z,44.41
2022-11-29T04:20:25.582Z,44.16
2022-11-29T04:23:21.698Z,43.87
2022-11-29T04:25:49.772Z,44.40
2022-11-29T04:28:45.073Z,44.60
2022-11-29T04:31:28.948Z,44.46
2022-11-29T04:34:15.608Z,44.87
2022-11-29T04:37:02.002Z,44.31
2022-11-29T04:39:45.529Z,44.75
2022-11-29T04:42:19.539Z,44.35
2022-11-29T04:45:12.380Z,44.19
2022-11-29T04:48:08.239Z,43.81
2022-11-29T04:51:05.781Z,43.79
2022-11-29T04:53:44.966Z,43.67
2022-11-29T04:56:54.797Z,43.61
2022-11-29T04:59:31.672Z,43.65
2022-11-29T05:02:10.800Z,43.68
2022-11-29T05:05:26.254Z,43.59
2022-11-29T05:08:09.986Z,43.07
2022-11-29T05:11:00.782Z,43.13
2022-11-29T05:14:06.725Z,43.21
2022-11-29T05:16:49.122Z,43.04
2022-11-29T05:19:24.382Z,43.23
2022-11-29T05:22:10.761Z,43.01
2022-11-29T05:24:55.921Z,43.00
2022-11-29T05:27:54.290Z,42.83
2022-11-29T05:30:24.895Z,43.08
2022-11-29T05:32:52.824Z,42.82
2022-11-29T05:35:51.058Z,42.93
2022-11-29T05:38:28.140Z,43.04
2022-11-29T05:41:11.635Z,43.26
2022-11-29T05:44:17.506Z,43.19
2022-11-29T05:46:59.544Z,43.46
2022-11-29T05:49:33.612Z,43.46
2022-11-29T05:52:30.340Z,43.70
2022-11-29T05:54:58.520Z,43.81
2022-11-29T05:57:43.897Z,43.76
2022-11-29T06:00:14.213Z,43.92
2022-11-29T06:03:03.308Z,44.35
2022-11-29T06:05:59.286Z,43.87
2022-11-29T06:08:46.086Z,44.09
2022-11-29T06:11:20.694Z,44.32
2022-11-29T06:14:00.773Z,44.87
2022-11-29T06:16:53.702Z,45.07
2022-11-29T06:19:47.261Z,44.86
2022-11-29T06:22:34.371Z,45.15
2022-11-29T06:25:36.524Z,44.90
2022-11-29T06:28:23.636Z,45.53
2022-11-29T06:30:55.291Z,45.72
2022-11-29T06:33:30.121Z,45.74
2022-11-29T06:36:23.371Z,45.14
2022-11-29T06:38:51.825Z,45.75
2022-11-29T06:41:23.017Z,46.61
2022-11-29T06:43:51.803Z,46.30
2022-11-29T06:47:05.308Z,46.07
2022-11-29T06:49:36.255Z,46.29
2022-11-29T06:52:15.789Z,46.75
2022-11-29T06:55:14.971Z,46.93
2022-11-29T06:57:43.253Z,46.88
2022-11-29T07:00:27.291Z,46.39
2022-11-29T07:03:21.462Z,46.04
2022-11-29T07:05:50.067Z,46.18
2022-11-29T07:08:21.622Z,46.28
2022-11-29T07:10:52.267Z,46.43
2022-11-29T07:13:21.340Z,46.27
2022-11-29T07:16:11.597Z,46.66
2022-11-29T07:19:01.803Z,46.64
2022-11-29T07:21:38.884Z,46.50
2022-11-29T07:24:34.999Z,46.78
2022-11-29T07:27:21.801Z,46.73
2022-11-29T07:30:19.399Z,46.86
2022-11-29T07:33:00.011Z,47.23
2022-11-29T07:35:43.236Z,46.73
2022-11-29T07:38:26.455Z,44.76
2022-11-29T07:41:13.052Z,41.23
2022-11-29T07:43:55.049Z,37.87
2022-11-29T07:46:23.596Z,34.91
2022-11-29T07:48:52.223Z,32.99
2022-11-29T07:51:20.514Z,31.85
2022-11-29T07:53:48.885Z,31.16
2022-11-29T07:56:17.066Z,30.80
2022-11-29T07:58:45.384Z,29.54
2022-11-29T08:01:13.661Z,28.13
2022-11-29T08:03:42.531Z,26.33
2022-11-29T08:06:10.701Z,25.16
2022-11-29T08:08:43.735Z,24.22
2022-11-29T08:11:13.194Z,23.89
2022-11-29T08:13:41.789Z,23.43
2022-11-29T08:16:16.623Z,22.46
2022-11-29T08:18:45.388Z,21.41
2022-11-29T08:21:13.584Z,20.17
2022-11-29T08:23:41.760Z,19.41
2022-11-29T08:26:10.451Z,18.47
2022-11-29T08:28:39.350Z,17.80
2022-11-29T08:31:10.435Z,17.09
2022-11-29T08:33:43.489Z,16.54
2022-11-29T08:36:15.674Z,16.09
2022-11-29T08:38:43.958Z,15.56
2022-11-29T08:41:14.771Z,15.09
2022-11-29T08:43:44.180Z,14.66
2022-11-29T08:46:17.971Z,14.21
2022-11-29T08:48:48.107Z,13.85
2022-11-29T08:51:16.182Z,13.45
2022-11-29T08:53:44.464Z,13.19
2022-11-29T08:59:05.589Z,12.75
2022-11-29T09:01:33.828Z,12.53
2022-11-29T09:04:02.161Z,12.24
2022-11-29T09:06:37.506Z,11.91
2022-11-29T09:09:06.489Z,11.96
2022-11-29T09:11:36.538Z,11.71
2022-11-29T09:14:07.650Z,11.53
2022-11-29T09:16:37.715Z,11.15
2022-11-29T09:19:06.675Z,11.16
2022-11-29T09:21:36.480Z,11.12
2022-11-29T09:24:06.093Z,11.04
2022-11-29T09:26:36.142Z,10.92
2022-11-29T09:29:06.850Z,10.85
2022-11-29T09:31:36.017Z,11.03
2022-11-29T09:34:04.433Z,10.88
2022-11-29T09:36:32.714Z,10.85
2022-11-29T09:39:02.429Z,11.23
2022-11-29T09:42:01.530Z,11.21
2022-11-29T09:44:38.695Z,11.87
2022-11-29T09:47:48.533Z,12.12
2022-11-29T09:50:23.660Z,12.50
2022-11-29T09:53:29.393Z,12.14
2022-11-29T09:56:19.941Z,12.05
2022-11-29T09:58:48.059Z,11.67
2022-11-29T10:01:27.583Z,11.48
2022-11-29T10:04:01.780Z,11.56
2022-11-29T10:06:36.881Z,11.46
2022-11-29T10:09:13.724Z,11.34
2022-11-29T10:12:03.197Z,10.82
2022-11-29T10:14:53.263Z,10.88
2022-11-29T10:17:32.190Z,11.03
2022-11-29T10:20:20.321Z,11.45
2022-11-29T10:22:59.761Z,11.28
2022-11-29T10:25:58.122Z,11.15
2022-11-29T10:28:32.217Z,11.15
2022-11-29T10:31:14.978Z,10.96
2022-11-29T10:33:44.456Z,11.23
2022-11-29T10:36:25.484Z,11.02
2022-11-29T10:38:59.944Z,11.30
2022-11-29T10:41:28.535Z,11.11
2022-11-29T10:43:58.682Z,11.43
2022-11-29T10:46:33.772Z,11.40
2022-11-29T10:49:10.592Z,11.36
2022-11-29T10:51:38.851Z,11.58
2022-11-29T10:54:39.718Z,11.64
2022-11-29T10:57:16.855Z,11.77
2022-11-29T11:00:03.766Z,11.54
2022-11-29T11:02:33.379Z,11.80
2022-11-29T11:05:01.859Z,12.26
2022-11-29T11:07:35.892Z,12.67
2022-11-29T11:10:18.175Z,12.62
2022-11-29T11:13:05.366Z,12.73
2022-11-29T11:15:33.696Z,12.74
2022-11-29T11:18:07.545Z,12.69
2022-11-29T11:20:41.806Z,12.94
2022-11-29T11:23:30.125Z,13.20
2022-11-29T11:26:04.430Z,13.18
2022-11-29T11:29:02.403Z,13.31
2022-11-29T11:31:36.515Z,13.10
2022-11-29T11:34:35.601Z,13.03
2022-11-29T11:37:16.261Z,12.96
2022-11-29T11:39:46.978Z,13.07
2022-11-29T11:42:38.569Z,13.14
2022-11-29T11:45:13.138Z,13.49
2022-11-29T11:47:48.889Z,14.25
2022-11-29T11:50:28.216Z,15.23
2022-11-29T11:52:59.074Z,16.17
2022-11-29T11:55:33.114Z,16.84
2022-11-29T11:58:13.280Z,17.66
2022-11-29T12:01:08.907Z,18.62
2022-11-29T12:03:48.531Z,20.20
2022-11-29T12:06:28.789Z,21.25
2022-11-29T12:09:09.070Z,22.30
2022-11-29T12:12:04.673Z,23.33
2022-11-29T12:14:45.286Z,24.50
2022-11-29T12:17:35.319Z,24.83
2022-11-29T12:20:12.467Z,25.52
2022-11-29T12:23:05.747Z,25.96
2022-11-29T12:25:46.166Z,27.03
2022-11-29T12:28:20.397Z,27.37
2022-11-29T12:30:55.381Z,27.94
2022-11-29T12:34:07.842Z,28.18
2022-11-29T12:36:44.823Z,28.16
2022-11-29T12:39:18.014Z,27.82
2022-11-29T12:42:04.445Z,28.73
2022-11-29T12:44:35.467Z,29.26
2022-11-29T12:47:35.039Z,29.42
2022-11-29T12:50:15.197Z,29.28
2022-11-29T12:53:14.385Z,29.77
2022-11-29T12:56:15.619Z,29.60
2022-11-29T12:59:11.840Z,30.04
2022-11-29T13:02:02.798Z,29.62
2022-11-29T13:04:33.899Z,29.61
2022-11-29T13:07:32.371Z,29.86
2022-11-29T13:10:25.592Z,29.82
2022-11-29T13:12:58.678Z,29.88
2022-11-29T13:15:59.666Z,29.94
2022-11-29T13:18:41.407Z,29.39
2022-11-29T13:21:24.211Z,29.61
2022-11-29T13:24:09.133Z,29.81
2022-11-29T13:26:40.512Z,29.60
2022-11-29T13:29:16.290Z,30.30
2022-11-29T13:31:46.951Z,30.73
2022-11-29T13:34:33.197Z,32.47
2022-11-29T13:37:26.151Z,33.66
2022-11-29T13:40:16.116Z,34.39
2022-11-29T13:42:57.292Z,34.74
2022-11-29T13:45:42.866Z,34.41
2022-11-29T13:48:29.466Z,34.55
2022-11-29T13:50:58.565Z,34.66
2022-11-29T13:53:48.546Z,34.57
2022-11-29T13:56:29.772Z,34.49
2022-11-29T13:58:58.816Z,34.91
2022-11-29T14:01:28.464Z,34.87
2022-11-29T14:04:05.314Z,35.17
2022-11-29T14:06:36.747Z,34.85
2022-11-29T14:09:20.917Z,34.87
2022-11-29T14:11:52.965Z,34.80
2022-11-29T14:14:42.021Z,34.92
2022-11-29T14:17:35.175Z,34.75
2022-11-29T14:20:23.201Z,35.03
2022-11-29T14:23:06.948Z,34.71
2022-11-29T14:25:52.709Z,34.44
2022-11-29T14:28:21.336Z,34.59
2022-11-29T14:30:54.287Z,34.59
2022-11-29T14:33:41.374Z,34.36
2022-11-29T14:36:15.610Z,34.87
2022-11-29T14:39:02.208Z,35.07
2022-11-29T14:41:49.315Z,34.97
2022-11-29T14:44:17.697Z,35.20
2022-11-29T14:46:48.108Z,35.63
2022-11-29T14:49:27.768Z,36.07
2022-11-29T14:52:09.992Z,36.15
2022-11-29T14:54:55.839Z,35.82
2022-11-29T14:57:53.804Z,35.36
2022-11-29T15:00:29.071Z,35.99
2022-11-29T15:03:19.196Z,36.64
2022-11-29T15:06:12.448Z,37.13
2022-11-29T15:08:49.565Z,37.31
2022-11-29T15:11:23.980Z,37.02
2022-11-29T15:14:02.694Z,36.84
2022-11-29T15:17:03.726Z,37.19
2022-11-29T15:20:07.459Z,37.76
2022-11-29T15:22:50.529Z,38.62
2022-11-29T15:25:30.347Z,38.91
2022-11-29T15:28:04.079Z,39.12
2022-11-29T15:30:32.564Z,39.44
2022-11-29T15:33:04.427Z,39.59
2022-11-29T15:35:35.264Z,39.58
2022-11-29T15:38:04.028Z,39.77
2022-11-29T15:40:32.341Z,39.80
2022-11-29T15:43:20.984Z,40.39
2022-11-29T15:45:54.327Z,39.98
2022-11-29T15:48:25.423Z,40.03
2022-11-29T15:50:56.670Z,39.93
2022-11-29T15:53:48.323Z,40.16
2022-11-29T15:56:22.911Z,40.05
2022-11-29T15:58:57.232Z,40.13
2022-11-29T16:01:25.574Z,39.69
2022-11-29T16:03:57.273Z,38.15
2022-11-29T16:06:40.823Z,38.57
2022-11-29T16:09:16.755Z,39.40
2022-11-29T16:11:48.001Z,39.65
2022-11-29T16:14:26.088Z,40.36
2022-11-29T16:16:57.976Z,41.39
2022-11-29T16:19:37.078Z,41.49
2022-11-29T16:22:21.953Z,41.99
2022-11-29T16:24:55.963Z,42.77
2022-11-29T16:27:24.656Z,42.99
2022-11-29T16:29:53.861Z,43.69
2022-11-29T16:32:32.886Z,43.78
2022-11-29T16:35:13.340Z,44.55
2022-11-29T16:37:44.745Z,45.26
2022-11-29T16:40:39.395Z,45.53
2022-11-29T16:43:20.905Z,45.01
2022-11-29T16:45:49.178Z,45.19
2022-11-29T16:48:23.763Z,45.62
2022-11-29T16:51:10.465Z,46.55
2022-11-29T16:53:43.556Z,46.94
2022-11-29T16:56:13.572Z,47.16
2022-11-29T16:59:24.893Z,47.55
2022-11-29T17:01:31.902Z,47.16
2022-11-29T17:04:00.684Z,47.39
2022-11-29T17:06:29.923Z,47.57
2022-11-29T17:08:59.585Z,48.11
2022-11-29T17:11:28.021Z,47.99
2022-11-29T17:13:56.409Z,48.41
2022-11-29T17:16:25.027Z,48.10
2022-11-29T17:18:53.168Z,48.39
2022-11-29T17:21:23.195Z,47.98
2022-11-29T17:23:52.903Z,48.31
2022-11-29T17:26:22.517Z,48.59
2022-11-29T17:28:52.739Z,48.48
2022-11-29T17:31:23.619Z,48.39
2022-11-29T17:33:52.091Z,49.25
2022-11-29T17:36:21.267Z,49.14
2022-11-29T17:38:49.546Z,49.84
2022-11-29T17:41:22.740Z,50.60
2022-11-29T17:43:52.336Z,50.86
2022-11-29T17:46:25.031Z,50.88
2022-11-29T17:48:53.926Z,50.92
2022-11-29T17:54:13.408Z,51.60
2022-11-29T17:56:41.695Z,52.33
2022-11-29T17:59:09.985Z,52.53
2022-11-29T18:01:38.288Z,52.94
2022-11-29T18:04:07.042Z,53.11
2022-11-29T18:06:40.142Z,53.21
2022-11-29T18:09:10.750Z,53.14
2022-11-29T18:11:47.377Z,53.48
2022-11-29T18:14:22.166Z,53.34
2022-11-29T18:16:51.318Z,53.27
2022-11-29T18:19:21.730Z,53.08
2022-11-29T18:21:50.703Z,52.83
2022-11-29T18:24:18.769Z,52.69
2022-11-29T18:26:47.153Z,52.89
2022-11-29T18:29:15.544Z,52.53
2022-11-29T18:31:45.762Z,53.08
2022-11-29T18:34:14.965Z,53.04
2022-11-29T18:36:48.372Z,52.82
2022-11-29T18:39:19.749Z,52.87
2022-11-29T18:41:49.949Z,52.54
2022-11-29T18:44:20.691Z,52.86
2022-11-29T18:46:49.192Z,52.42
2022-11-29T18:49:18.172Z,52.74
2022-11-29T18:51:47.129Z,52.83
2022-11-29T18:54:17.806Z,52.44
2022-11-29T18:56:46.379Z,51.98
2022-11-29T18:59:17.833Z,52.06
2022-11-29T19:01:48.225Z,51.73
2022-11-29T19:04:19.516Z,51.64
2022-11-29T19:06:47.859Z,52.14
2022-11-29T19:09:19.481Z,52.88
2022-11-29T19:11:47.834Z,52.94
2022-11-29T19:14:15.907Z,53.03
2022-11-29T19:16:46.195Z,52.58
2022-11-29T19:19:14.412Z,52.83
2022-11-29T19:21:42.592Z,52.78
2022-11-29T19:24:15.956Z,53.26
2022-11-29T19:26:46.839Z,53.22
2022-11-29T19:29:16.340Z,53.71
2022-11-29T19:31:44.621Z,53.69
2022-11-29T19:34:12.789Z,53.39
2022-11-29T19:36:42.096Z,53.19
2022-11-29T19:39:10.681Z,53.84
2022-11-29T19:41:39.387Z,53.87
2022-11-29T19:44:09.112Z,53.96
2022-11-29T19:46:40.701Z,54.27
2022-11-29T19:49:09.776Z,54.23
2022-11-29T19:51:38.430Z,54.23
2022-11-29T19:54:08.742Z,53.79
2022-11-29T19:56:37.841Z,54.20
2022-11-29T19:59:07.194Z,53.48
2022-11-29T20:01:40.657Z,54.08
2022-11-29T20:04:12.008Z,53.48
2022-11-29T20:06:40.807Z,54.07
2022-11-29T20:09:09.696Z,54.82
2022-11-29T20:11:37.886Z,54.57
2022-11-29T20:14:07.590Z,54.22
2022-11-29T20:16:36.870Z,53.76
2022-11-29T20:19:10.528Z,53.64
2022-11-29T20:21:42.764Z,53.58
2022-11-29T20:24:12.137Z,53.84
2022-11-29T20:26:42.593Z,53.87
2022-11-29T20:29:12.264Z,54.06
2022-11-29T20:31:47.773Z,54.44
2022-11-29T20:34:19.424Z,54.45
2022-11-29T20:37:12.052Z,54.40
2022-11-29T20:39:53.687Z,53.76
2022-11-29T20:42:33.992Z,53.87
2022-11-29T20:45:05.891Z,54.35
2022-11-29T20:47:55.054Z,54.03
2022-11-29T20:50:28.526Z,53.52
2022-11-29T20:53:20.228Z,53.73
2022-11-29T20:55:49.739Z,53.14
2022-11-29T20:58:17.915Z,53.41
2022-11-29T21:00:46.809Z,53.40
2022-11-29T21:03:16.462Z,53.53
2022-11-29T21:05:44.657Z,53.48
2022-11-29T21:08:13.978Z,53.48
2022-11-29T21:10:42.488Z,53.47
2022-11-29T21:13:12.814Z,53.42
2022-11-29T21:15:41.816Z,53.60
2022-11-29T21:18:30.178Z,53.38
2022-11-29T21:21:13.474Z,53.62
2022-11-29T21:23:52.301Z,53.58
2022-11-29T21:26:30.168Z,53.44
2022-11-29T21:29:04.845Z,53.47
2022-11-29T21:31:33.356Z,53.32
2022-11-29T21:34:02.304Z,53.64
2022-11-29T21:36:30.489Z,53.74
2022-11-29T21:39:03.633Z,53.32
2022-11-29T21:41:34.027Z,52.96
2022-11-29T21:44:07.215Z,52.57
2022-11-29T21:46:36.820Z,52.29
2022-11-29T21:49:05.292Z,52.10
2022-11-29T21:51:33.468Z,52.06
2022-11-29T21:54:02.269Z,52.45
2022-11-29T21:56:30.440Z,52.52
2022-11-29T21:58:58.618Z,52.75
2022-11-29T22:01:27.564Z,52.44
2022-11-29T22:03:55.996Z,52.74
2022-11-29T22:06:24.295Z,52.68
2022-11-29T22:08:53.075Z,52.64
2022-11-29T22:11:23.512Z,52.08
2022-11-29T22:13:53.625Z,51.63
2022-11-29T22:16:21.592Z,51.43
2022-11-29T22:18:50.704Z,51.42
2022-11-29T22:21:19.283Z,51.68
2022-11-29T22:23:47.468Z,50.88
2022-11-29T22:26:15.641Z,51.09
2022-11-29T22:28:43.818Z,50.90
2022-11-29T22:31:12.893Z,50.24
2022-11-29T22:33:40.995Z,50.53
2022-11-29T22:36:12.525Z,50.50
2022-11-29T22:38:40.625Z,50.45
2022-11-29T22:41:11.484Z,50.35
2022-11-29T22:43:41.092Z,49.87
2022-11-29T22:46:12.026Z,50.05
2022-11-29T22:48:41.953Z,50.40
2022-11-29T22:51:15.965Z,49.44
2022-11-29T22:53:52.214Z,50.54
2022-11-29T22:56:21.203Z,50.76
2022-11-29T22:58:49.899Z,50.70
2022-11-29T23:01:24.158Z,50.10
2022-11-29T23:03:54.907Z,49.80
2022-11-29T23:06:22.924Z,50.11
2022-11-29T23:08:53.457Z,50.03
2022-11-29T23:11:27.787Z,49.42
2022-11-29T23:13:56.639Z,49.58
2022-11-29T23:16:27.825Z,49.92
2022-11-29T23:18:58.663Z,49.70
2022-11-29T23:21:32.678Z,49.77
2022-11-29T23:24:01.570Z,49.45
2022-11-29T23:26:48.262Z,48.88
2022-11-29T23:29:18.982Z,49.22
2022-11-29T23:31:47.776Z,49.63
2022-11-29T23:34:16.377Z,49.80
2022-11-29T23:36:49.642Z,49.33
2022-11-29T23:39:21.232Z,49.39
2022-11-29T23:41:49.412Z,49.66
2022-11-29T23:44:17.583Z,49.58
2022-11-29T23:46:45.681Z,49.56
2022-11-29T23:49:14.248Z,49.53
2022-11-29T23:51:42.427Z,49.72
2022-11-29T23:54:10.604Z,49.67
2022-11-29T23:56:39.193Z,49.00
2022-11-29T23:59:07.780Z,48.85
